Brunette Downs, Australia
Current Conditions -  °F | °C
As of 9:00 AM on Sunday 26 Oct 2014 (Local Time) from YTNK Reporting Station
Clear Clear  
Wind Chill: 91°   Ceiling: Unl
Heat Index: 91°   Visibility: 6mi
Dew Point: 45°   Wind: 6mph
Humidity: 20%   Direction: 350°N
Pressure: 30"   Gusts: NA
Location:  18.63°S, 136.03°E
Report Text: YTNK 260000Z AUTO 35005KT 9999 // NCD 33/07 Q1016
Loading
Personal Weather Stations






























Interactive Weather Map
Tropical Storm Tracking
New forecast layout! Learn more

10-Day Weather Forecast

Advertisements
Track Severe Weather on mobile